sensor_id;sensor_type;location;lat;lon;timestamp;P1;durP1;ratioP1;P2;durP2;ratioP2
59938;SDS011;45801;51.810;19.444;2024-03-02T00:00:30;33.70;;;22.80;;
59938;SDS011;45801;51.810;19.444;2024-03-02T00:03:17;31.80;;;22.40;;
59938;SDS011;45801;51.810;19.444;2024-03-02T00:05:44;32.80;;;23.00;;
59938;SDS011;45801;51.810;19.444;2024-03-02T00:08:17;29.00;;;21.00;;
59938;SDS011;45801;51.810;19.444;2024-03-02T00:10:50;31.20;;;21.40;;
59938;SDS011;45801;51.810;19.444;2024-03-02T00:13:19;29.20;;;21.40;;
59938;SDS011;45801;51.810;19.444;2024-03-02T00:15:52;29.80;;;21.30;;
59938;SDS011;45801;51.810;19.444;2024-03-02T00:18:27;31.60;;;22.40;;
59938;SDS011;45801;51.810;19.444;2024-03-02T00:20:57;28.80;;;20.40;;
59938;SDS011;45801;51.810;19.444;2024-03-02T00:23:27;31.70;;;21.80;;
59938;SDS011;45801;51.810;19.444;2024-03-02T00:25:56;29.80;;;22.30;;
59938;SDS011;45801;51.810;19.444;2024-03-02T00:28:24;32.40;;;21.50;;
59938;SDS011;45801;51.810;19.444;2024-03-02T00:36:09;30.50;;;20.80;;
59938;SDS011;45801;51.810;19.444;2024-03-02T00:38:45;29.80;;;20.80;;
59938;SDS011;45801;51.810;19.444;2024-03-02T00:41:23;30.40;;;21.90;;
59938;SDS011;45801;51.810;19.444;2024-03-02T00:43:58;28.30;;;20.50;;
59938;SDS011;45801;51.810;19.444;2024-03-02T00:46:38;30.30;;;20.80;;
59938;SDS011;45801;51.810;19.444;2024-03-02T00:51:45;28.30;;;19.50;;
59938;SDS011;45801;51.810;19.444;2024-03-02T00:54:15;25.30;;;18.50;;
59938;SDS011;45801;51.810;19.444;2024-03-02T00:56:50;28.00;;;19.20;;
59938;SDS011;45801;51.810;19.444;2024-03-02T00:59:18;28.80;;;20.40;;
59938;SDS011;45801;51.810;19.444;2024-03-02T01:01:45;29.30;;;19.90;;
59938;SDS011;45801;51.810;19.444;2024-03-02T01:04:11;28.20;;;20.20;;
59938;SDS011;45801;51.810;19.444;2024-03-02T01:06:38;30.90;;;21.00;;
59938;SDS011;45801;51.810;19.444;2024-03-02T01:09:05;29.80;;;21.10;;
59938;SDS011;45801;51.810;19.444;2024-03-02T01:11:32;28.00;;;20.30;;
59938;SDS011;45801;51.810;19.444;2024-03-02T01:13:58;25.20;;;18.90;;
59938;SDS011;45801;51.810;19.444;2024-03-02T01:16:24;28.90;;;20.40;;
59938;SDS011;45801;51.810;19.444;2024-03-02T01:18:51;30.00;;;20.00;;
59938;SDS011;45801;51.810;19.444;2024-03-02T01:21:18;27.90;;;18.50;;
59938;SDS011;45801;51.810;19.444;2024-03-02T01:23:44;27.10;;;18.60;;
59938;SDS011;45801;51.810;19.444;2024-03-02T01:26:11;26.30;;;18.40;;
59938;SDS011;45801;51.810;19.444;2024-03-02T01:28:37;29.10;;;21.10;;
59938;SDS011;45801;51.810;19.444;2024-03-02T01:31:04;27.00;;;19.00;;
59938;SDS011;45801;51.810;19.444;2024-03-02T01:33:30;26.90;;;18.70;;
59938;SDS011;45801;51.810;19.444;2024-03-02T01:35:57;26.60;;;18.20;;
59938;SDS011;45801;51.810;19.444;2024-03-02T01:38:24;24.70;;;16.50;;
59938;SDS011;45801;51.810;19.444;2024-03-02T01:40:50;27.00;;;19.50;;
59938;SDS011;45801;51.810;19.444;2024-03-02T01:43:18;28.90;;;20.10;;
59938;SDS011;45801;51.810;19.444;2024-03-02T01:45:45;27.10;;;19.20;;
59938;SDS011;45801;51.810;19.444;2024-03-02T01:48:11;25.70;;;18.50;;
59938;SDS011;45801;51.810;19.444;2024-03-02T01:50:38;25.40;;;18.70;;
59938;SDS011;45801;51.810;19.444;2024-03-02T01:53:05;28.80;;;20.00;;
59938;SDS011;45801;51.810;19.444;2024-03-02T01:55:31;25.10;;;18.70;;
59938;SDS011;45801;51.810;19.444;2024-03-02T01:57:59;24.90;;;18.90;;
59938;SDS011;45801;51.810;19.444;2024-03-02T02:00:26;24.40;;;18.40;;
59938;SDS011;45801;51.810;19.444;2024-03-02T02:02:53;26.30;;;18.10;;
59938;SDS011;45801;51.810;19.444;2024-03-02T02:05:20;27.50;;;19.30;;
59938;SDS011;45801;51.810;19.444;2024-03-02T02:07:47;26.60;;;18.50;;
59938;SDS011;45801;51.810;19.444;2024-03-02T02:10:14;29.10;;;19.50;;
59938;SDS011;45801;51.810;19.444;2024-03-02T02:12:40;27.00;;;19.00;;
59938;SDS011;45801;51.810;19.444;2024-03-02T02:15:26;29.10;;;19.30;;
59938;SDS011;45801;51.810;19.444;2024-03-02T02:17:54;24.00;;;18.70;;
59938;SDS011;45801;51.810;19.444;2024-03-02T02:20:23;26.00;;;18.50;;
59938;SDS011;45801;51.810;19.444;2024-03-02T02:23:00;26.80;;;18.90;;
59938;SDS011;45801;51.810;19.444;2024-03-02T02:25:28;25.20;;;18.80;;
59938;SDS011;45801;51.810;19.444;2024-03-02T02:27:55;25.80;;;17.90;;
59938;SDS011;45801;51.810;19.444;2024-03-02T02:30:27;23.40;;;17.50;;
59938;SDS011;45801;51.810;19.444;2024-03-02T02:32:55;26.00;;;18.20;;
59938;SDS011;45801;51.810;19.444;2024-03-02T02:35:22;26.90;;;19.70;;
59938;SDS011;45801;51.810;19.444;2024-03-02T02:37:50;25.50;;;19.20;;
59938;SDS011;45801;51.810;19.444;2024-03-02T02:40:18;26.30;;;18.40;;
59938;SDS011;45801;51.810;19.444;2024-03-02T02:42:45;27.60;;;18.50;;
59938;SDS011;45801;51.810;19.444;2024-03-02T02:45:12;26.20;;;19.10;;
59938;SDS011;45801;51.810;19.444;2024-03-02T02:47:41;27.10;;;18.70;;
59938;SDS011;45801;51.810;19.444;2024-03-02T02:50:09;26.20;;;18.70;;
59938;SDS011;45801;51.810;19.444;2024-03-02T02:52:38;23.80;;;17.90;;
59938;SDS011;45801;51.810;19.444;2024-03-02T02:55:07;24.40;;;17.80;;
59938;SDS011;45801;51.810;19.444;2024-03-02T02:57:41;24.50;;;17.90;;
59938;SDS011;45801;51.810;19.444;2024-03-02T03:00:17;26.30;;;17.30;;
59938;SDS011;45801;51.810;19.444;2024-03-02T03:02:47;25.90;;;17.40;;
59938;SDS011;45801;51.810;19.444;2024-03-02T03:05:17;24.50;;;17.90;;
59938;SDS011;45801;51.810;19.444;2024-03-02T03:07:44;24.40;;;17.00;;
59938;SDS011;45801;51.810;19.444;2024-03-02T03:10:11;25.80;;;17.70;;
59938;SDS011;45801;51.810;19.444;2024-03-02T03:12:38;25.80;;;18.00;;
59938;SDS011;45801;51.810;19.444;2024-03-02T03:15:05;24.20;;;17.00;;
59938;SDS011;45801;51.810;19.444;2024-03-02T03:17:33;24.20;;;17.20;;
59938;SDS011;45801;51.810;19.444;2024-03-02T03:19:59;25.00;;;17.70;;
59938;SDS011;45801;51.810;19.444;2024-03-02T03:22:27;26.10;;;17.70;;
59938;SDS011;45801;51.810;19.444;2024-03-02T03:24:53;26.50;;;17.30;;
59938;SDS011;45801;51.810;19.444;2024-03-02T03:27:20;24.50;;;17.50;;
59938;SDS011;45801;51.810;19.444;2024-03-02T03:29:47;23.20;;;16.70;;
59938;SDS011;45801;51.810;19.444;2024-03-02T03:32:13;25.80;;;18.00;;
59938;SDS011;45801;51.810;19.444;2024-03-02T03:34:40;23.90;;;16.70;;
59938;SDS011;45801;51.810;19.444;2024-03-02T03:37:07;25.30;;;17.30;;
59938;SDS011;45801;51.810;19.444;2024-03-02T03:39:34;22.40;;;16.30;;
59938;SDS011;45801;51.810;19.444;2024-03-02T03:42:02;24.40;;;17.30;;
59938;SDS011;45801;51.810;19.444;2024-03-02T03:44:29;23.90;;;17.20;;
59938;SDS011;45801;51.810;19.444;2024-03-02T03:46:55;25.80;;;17.20;;
59938;SDS011;45801;51.810;19.444;2024-03-02T03:49:22;26.00;;;17.80;;
59938;SDS011;45801;51.810;19.444;2024-03-02T03:51:48;25.50;;;17.70;;
59938;SDS011;45801;51.810;19.444;2024-03-02T03:54:15;23.70;;;17.00;;
59938;SDS011;45801;51.810;19.444;2024-03-02T03:56:42;25.10;;;17.60;;
59938;SDS011;45801;51.810;19.444;2024-03-02T03:59:08;24.50;;;18.00;;
59938;SDS011;45801;51.810;19.444;2024-03-02T04:01:35;24.10;;;17.30;;
59938;SDS011;45801;51.810;19.444;2024-03-02T04:04:01;23.10;;;16.70;;
59938;SDS011;45801;51.810;19.444;2024-03-02T04:06:29;24.60;;;17.10;;
59938;SDS011;45801;51.810;19.444;2024-03-02T04:08:56;24.40;;;17.40;;
59938;SDS011;45801;51.810;19.444;2024-03-02T04:11:23;23.40;;;17.00;;
59938;SDS011;45801;51.810;19.444;2024-03-02T04:13:49;23.60;;;16.10;;
59938;SDS011;45801;51.810;19.444;2024-03-02T04:16:17;24.40;;;16.70;;
59938;SDS011;45801;51.810;19.444;2024-03-02T04:18:43;24.40;;;17.10;;
59938;SDS011;45801;51.810;19.444;2024-03-02T04:21:10;24.30;;;16.50;;
59938;SDS011;45801;51.810;19.444;2024-03-02T04:23:38;24.50;;;17.70;;
59938;SDS011;45801;51.810;19.444;2024-03-02T04:26:05;23.10;;;16.60;;
59938;SDS011;45801;51.810;19.444;2024-03-02T04:28:31;23.60;;;17.00;;
59938;SDS011;45801;51.810;19.444;2024-03-02T04:30:59;24.50;;;17.90;;
59938;SDS011;45801;51.810;19.444;2024-03-02T04:33:25;22.70;;;16.90;;
59938;SDS011;45801;51.810;19.444;2024-03-02T04:35:52;23.50;;;16.20;;
59938;SDS011;45801;51.810;19.444;2024-03-02T04:38:19;23.50;;;18.30;;
59938;SDS011;45801;51.810;19.444;2024-03-02T04:40:45;23.80;;;17.30;;
59938;SDS011;45801;51.810;19.444;2024-03-02T04:43:12;21.80;;;16.40;;
59938;SDS011;45801;51.810;19.444;2024-03-02T04:45:42;23.30;;;17.60;;
59938;SDS011;45801;51.810;19.444;2024-03-02T04:48:10;24.90;;;17.20;;
59938;SDS011;45801;51.810;19.444;2024-03-02T04:50:36;23.20;;;16.10;;
59938;SDS011;45801;51.810;19.444;2024-03-02T04:53:04;26.00;;;17.40;;
59938;SDS011;45801;51.810;19.444;2024-03-02T04:55:31;24.90;;;16.60;;
59938;SDS011;45801;51.810;19.444;2024-03-02T04:58:00;24.40;;;17.20;;
59938;SDS011;45801;51.810;19.444;2024-03-02T05:00:26;24.70;;;17.40;;
59938;SDS011;45801;51.810;19.444;2024-03-02T05:02:53;25.20;;;17.90;;
59938;SDS011;45801;51.810;19.444;2024-03-02T05:05:20;26.50;;;17.40;;
59938;SDS011;45801;51.810;19.444;2024-03-02T05:07:46;22.30;;;16.40;;
59938;SDS011;45801;51.810;19.444;2024-03-02T05:10:13;23.70;;;17.70;;
59938;SDS011;45801;51.810;19.444;2024-03-02T05:12:41;24.60;;;17.40;;
59938;SDS011;45801;51.810;19.444;2024-03-02T05:15:11;25.90;;;17.90;;
59938;SDS011;45801;51.810;19.444;2024-03-02T05:17:39;23.80;;;17.80;;
59938;SDS011;45801;51.810;19.444;2024-03-02T05:20:09;23.30;;;17.10;;
59938;SDS011;45801;51.810;19.444;2024-03-02T05:22:37;23.60;;;16.60;;
59938;SDS011;45801;51.810;19.444;2024-03-02T05:25:04;27.10;;;18.90;;
59938;SDS011;45801;51.810;19.444;2024-03-02T05:27:31;27.70;;;18.40;;
59938;SDS011;45801;51.810;19.444;2024-03-02T05:29:59;27.80;;;17.30;;
59938;SDS011;45801;51.810;19.444;2024-03-02T05:32:26;25.10;;;17.80;;
59938;SDS011;45801;51.810;19.444;2024-03-02T05:34:54;25.20;;;18.40;;
59938;SDS011;45801;51.810;19.444;2024-03-02T05:37:21;25.60;;;17.70;;
59938;SDS011;45801;51.810;19.444;2024-03-02T05:39:47;26.60;;;18.60;;
59938;SDS011;45801;51.810;19.444;2024-03-02T05:42:15;24.90;;;17.10;;
59938;SDS011;45801;51.810;19.444;2024-03-02T05:44:43;25.00;;;18.00;;
59938;SDS011;45801;51.810;19.444;2024-03-02T05:47:09;25.40;;;18.00;;
59938;SDS011;45801;51.810;19.444;2024-03-02T05:49:36;24.30;;;18.40;;
59938;SDS011;45801;51.810;19.444;2024-03-02T05:52:03;24.80;;;17.50;;
59938;SDS011;45801;51.810;19.444;2024-03-02T05:54:30;26.00;;;17.80;;
59938;SDS011;45801;51.810;19.444;2024-03-02T05:56:56;27.50;;;18.90;;
59938;SDS011;45801;51.810;19.444;2024-03-02T05:59:23;26.80;;;19.40;;
59938;SDS011;45801;51.810;19.444;2024-03-02T06:01:49;27.50;;;18.60;;
59938;SDS011;45801;51.810;19.444;2024-03-02T06:04:19;27.50;;;18.60;;
59938;SDS011;45801;51.810;19.444;2024-03-02T06:06:46;25.90;;;18.70;;
59938;SDS011;45801;51.810;19.444;2024-03-02T06:09:12;26.70;;;18.50;;
59938;SDS011;45801;51.810;19.444;2024-03-02T06:11:39;24.40;;;18.00;;
59938;SDS011;45801;51.810;19.444;2024-03-02T06:14:08;27.60;;;20.10;;
59938;SDS011;45801;51.810;19.444;2024-03-02T06:16:35;30.40;;;22.50;;
59938;SDS011;45801;51.810;19.444;2024-03-02T06:19:02;31.00;;;21.40;;
59938;SDS011;45801;51.810;19.444;2024-03-02T06:21:28;29.20;;;22.20;;
59938;SDS011;45801;51.810;19.444;2024-03-02T06:23:55;31.00;;;22.10;;
59938;SDS011;45801;51.810;19.444;2024-03-02T06:26:23;31.50;;;21.90;;
59938;SDS011;45801;51.810;19.444;2024-03-02T06:28:49;30.00;;;20.60;;
59938;SDS011;45801;51.810;19.444;2024-03-02T06:31:17;29.70;;;21.90;;
59938;SDS011;45801;51.810;19.444;2024-03-02T06:33:43;29.00;;;20.30;;
59938;SDS011;45801;51.810;19.444;2024-03-02T06:36:10;28.20;;;19.50;;
59938;SDS011;45801;51.810;19.444;2024-03-02T06:38:38;29.20;;;20.90;;
59938;SDS011;45801;51.810;19.444;2024-03-02T06:41:07;30.10;;;21.30;;
59938;SDS011;45801;51.810;19.444;2024-03-02T06:43:34;29.10;;;20.00;;
59938;SDS011;45801;51.810;19.444;2024-03-02T06:46:00;29.60;;;19.50;;
59938;SDS011;45801;51.810;19.444;2024-03-02T06:48:27;30.30;;;20.40;;
59938;SDS011;45801;51.810;19.444;2024-03-02T06:50:56;29.70;;;19.60;;
59938;SDS011;45801;51.810;19.444;2024-03-02T06:53:23;28.50;;;19.70;;
59938;SDS011;45801;51.810;19.444;2024-03-02T06:55:50;30.70;;;20.10;;
59938;SDS011;45801;51.810;19.444;2024-03-02T06:58:16;27.10;;;19.30;;
59938;SDS011;45801;51.810;19.444;2024-03-02T07:00:43;29.60;;;20.50;;
59938;SDS011;45801;51.810;19.444;2024-03-02T07:03:14;28.00;;;18.90;;
59938;SDS011;45801;51.810;19.444;2024-03-02T07:05:42;27.90;;;20.00;;
59938;SDS011;45801;51.810;19.444;2024-03-02T07:08:09;29.30;;;18.90;;
59938;SDS011;45801;51.810;19.444;2024-03-02T07:10:36;30.90;;;20.40;;
59938;SDS011;45801;51.810;19.444;2024-03-02T07:13:02;28.40;;;19.70;;
59938;SDS011;45801;51.810;19.444;2024-03-02T07:15:30;26.30;;;19.00;;
59938;SDS011;45801;51.810;19.444;2024-03-02T07:18:13;32.20;;;22.50;;
59938;SDS011;45801;51.810;19.444;2024-03-02T07:20:40;29.30;;;20.20;;
59938;SDS011;45801;51.810;19.444;2024-03-02T07:23:07;32.50;;;21.30;;
59938;SDS011;45801;51.810;19.444;2024-03-02T07:25:33;29.80;;;21.30;;
59938;SDS011;45801;51.810;19.444;2024-03-02T07:28:00;27.90;;;20.70;;
59938;SDS011;45801;51.810;19.444;2024-03-02T07:30:27;31.30;;;21.30;;
59938;SDS011;45801;51.810;19.444;2024-03-02T07:32:54;30.10;;;20.50;;
59938;SDS011;45801;51.810;19.444;2024-03-02T07:35:20;32.70;;;21.50;;
59938;SDS011;45801;51.810;19.444;2024-03-02T07:37:48;28.30;;;19.60;;
59938;SDS011;45801;51.810;19.444;2024-03-02T07:40:16;28.20;;;20.50;;
59938;SDS011;45801;51.810;19.444;2024-03-02T07:42:42;31.00;;;20.60;;
59938;SDS011;45801;51.810;19.444;2024-03-02T07:45:09;30.20;;;20.60;;
59938;SDS011;45801;51.810;19.444;2024-03-02T07:47:36;29.00;;;20.40;;
59938;SDS011;45801;51.810;19.444;2024-03-02T07:50:03;31.30;;;21.50;;
59938;SDS011;45801;51.810;19.444;2024-03-02T07:52:32;34.90;;;21.60;;
59938;SDS011;45801;51.810;19.444;2024-03-02T07:54:59;32.60;;;22.40;;
59938;SDS011;45801;51.810;19.444;2024-03-02T07:57:26;33.90;;;22.80;;
59938;SDS011;45801;51.810;19.444;2024-03-02T07:59:53;30.80;;;21.10;;
59938;SDS011;45801;51.810;19.444;2024-03-02T08:02:19;31.90;;;21.00;;
59938;SDS011;45801;51.810;19.444;2024-03-02T08:04:46;32.00;;;22.50;;
59938;SDS011;45801;51.810;19.444;2024-03-02T08:07:13;33.10;;;21.70;;
59938;SDS011;45801;51.810;19.444;2024-03-02T08:09:39;32.30;;;21.60;;
59938;SDS011;45801;51.810;19.444;2024-03-02T08:12:06;29.60;;;20.60;;
59938;SDS011;45801;51.810;19.444;2024-03-02T08:14:33;32.00;;;19.90;;
59938;SDS011;45801;51.810;19.444;2024-03-02T08:16:59;31.80;;;20.60;;
59938;SDS011;45801;51.810;19.444;2024-03-02T08:19:27;29.90;;;20.10;;
59938;SDS011;45801;51.810;19.444;2024-03-02T08:21:55;31.20;;;21.80;;
59938;SDS011;45801;51.810;19.444;2024-03-02T08:24:21;32.20;;;21.40;;
59938;SDS011;45801;51.810;19.444;2024-03-02T08:26:48;30.10;;;20.70;;
59938;SDS011;45801;51.810;19.444;2024-03-02T08:29:14;32.20;;;20.90;;
59938;SDS011;45801;51.810;19.444;2024-03-02T08:31:41;30.80;;;20.50;;
59938;SDS011;45801;51.810;19.444;2024-03-02T08:34:07;29.90;;;21.00;;
59938;SDS011;45801;51.810;19.444;2024-03-02T08:36:36;35.30;;;21.00;;
59938;SDS011;45801;51.810;19.444;2024-03-02T08:39:03;33.30;;;21.30;;
59938;SDS011;45801;51.810;19.444;2024-03-02T08:41:33;32.00;;;21.80;;
59938;SDS011;45801;51.810;19.444;2024-03-02T08:43:59;30.30;;;21.10;;
59938;SDS011;45801;51.810;19.444;2024-03-02T08:46:26;28.90;;;19.30;;
59938;SDS011;45801;51.810;19.444;2024-03-02T08:48:53;33.00;;;21.90;;
59938;SDS011;45801;51.810;19.444;2024-03-02T08:51:20;30.00;;;21.30;;
59938;SDS011;45801;51.810;19.444;2024-03-02T08:53:46;31.20;;;20.80;;
59938;SDS011;45801;51.810;19.444;2024-03-02T08:56:12;31.70;;;20.50;;
59938;SDS011;45801;51.810;19.444;2024-03-02T08:58:39;29.90;;;20.00;;
59938;SDS011;45801;51.810;19.444;2024-03-02T09:01:07;31.90;;;21.80;;
59938;SDS011;45801;51.810;19.444;2024-03-02T09:03:34;35.00;;;22.70;;
59938;SDS011;45801;51.810;19.444;2024-03-02T09:06:01;33.50;;;21.30;;
59938;SDS011;45801;51.810;19.444;2024-03-02T09:08:28;30.60;;;19.00;;
59938;SDS011;45801;51.810;19.444;2024-03-02T09:10:56;33.90;;;22.10;;
59938;SDS011;45801;51.810;19.444;2024-03-02T09:13:22;30.80;;;21.70;;
59938;SDS011;45801;51.810;19.444;2024-03-02T09:15:49;33.00;;;20.70;;
59938;SDS011;45801;51.810;19.444;2024-03-02T09:18:16;28.50;;;19.40;;
59938;SDS011;45801;51.810;19.444;2024-03-02T09:20:42;31.90;;;21.50;;
59938;SDS011;45801;51.810;19.444;2024-03-02T09:23:09;32.30;;;20.90;;
59938;SDS011;45801;51.810;19.444;2024-03-02T09:25:36;34.00;;;22.00;;
59938;SDS011;45801;51.810;19.444;2024-03-02T09:28:03;32.10;;;20.60;;
59938;SDS011;45801;51.810;19.444;2024-03-02T09:30:33;31.40;;;19.80;;
59938;SDS011;45801;51.810;19.444;2024-03-02T09:32:59;32.00;;;21.50;;
59938;SDS011;45801;51.810;19.444;2024-03-02T09:35:28;31.00;;;20.40;;
59938;SDS011;45801;51.810;19.444;2024-03-02T09:37:56;30.70;;;20.50;;
59938;SDS011;45801;51.810;19.444;2024-03-02T09:40:22;31.30;;;21.20;;
59938;SDS011;45801;51.810;19.444;2024-03-02T09:42:49;30.10;;;20.40;;
59938;SDS011;45801;51.810;19.444;2024-03-02T09:45:22;33.40;;;21.40;;
59938;SDS011;45801;51.810;19.444;2024-03-02T09:47:50;30.80;;;21.30;;
59938;SDS011;45801;51.810;19.444;2024-03-02T09:50:17;28.40;;;19.00;;
59938;SDS011;45801;51.810;19.444;2024-03-02T09:52:44;30.10;;;20.50;;
59938;SDS011;45801;51.810;19.444;2024-03-02T09:55:15;32.70;;;21.50;;
59938;SDS011;45801;51.810;19.444;2024-03-02T09:57:42;30.50;;;20.70;;
59938;SDS011;45801;51.810;19.444;2024-03-02T10:00:09;33.10;;;21.70;;
59938;SDS011;45801;51.810;19.444;2024-03-02T10:02:41;29.70;;;20.30;;
59938;SDS011;45801;51.810;19.444;2024-03-02T10:05:08;33.00;;;21.10;;
59938;SDS011;45801;51.810;19.444;2024-03-02T10:07:35;31.40;;;21.10;;
59938;SDS011;45801;51.810;19.444;2024-03-02T10:10:12;29.80;;;19.60;;
59938;SDS011;45801;51.810;19.444;2024-03-02T10:12:40;25.60;;;15.80;;
59938;SDS011;45801;51.810;19.444;2024-03-02T10:15:07;25.90;;;16.70;;
59938;SDS011;45801;51.810;19.444;2024-03-02T10:17:35;30.10;;;18.90;;
59938;SDS011;45801;51.810;19.444;2024-03-02T10:20:23;26.00;;;17.90;;
59938;SDS011;45801;51.810;19.444;2024-03-02T10:22:53;31.30;;;21.60;;
59938;SDS011;45801;51.810;19.444;2024-03-02T10:25:35;31.40;;;21.40;;
59938;SDS011;45801;51.810;19.444;2024-03-02T10:28:02;32.50;;;21.10;;
59938;SDS011;45801;51.810;19.444;2024-03-02T10:30:35;31.30;;;21.00;;
59938;SDS011;45801;51.810;19.444;2024-03-02T10:33:03;32.90;;;21.70;;
59938;SDS011;45801;51.810;19.444;2024-03-02T10:35:31;33.10;;;21.10;;
59938;SDS011;45801;51.810;19.444;2024-03-02T10:37:59;32.50;;;21.80;;
59938;SDS011;45801;51.810;19.444;2024-03-02T10:40:29;31.50;;;22.40;;
59938;SDS011;45801;51.810;19.444;2024-03-02T10:42:56;33.90;;;23.70;;
59938;SDS011;45801;51.810;19.444;2024-03-02T10:45:23;34.20;;;21.50;;
59938;SDS011;45801;51.810;19.444;2024-03-02T10:47:50;33.30;;;22.30;;
59938;SDS011;45801;51.810;19.444;2024-03-02T10:50:17;34.00;;;23.10;;
59938;SDS011;45801;51.810;19.444;2024-03-02T10:52:44;32.50;;;21.80;;
59938;SDS011;45801;51.810;19.444;2024-03-02T10:55:11;32.80;;;21.70;;
59938;SDS011;45801;51.810;19.444;2024-03-02T10:57:42;30.30;;;21.30;;
59938;SDS011;45801;51.810;19.444;2024-03-02T11:00:20;33.10;;;22.10;;
59938;SDS011;45801;51.810;19.444;2024-03-02T11:05:27;34.30;;;23.30;;
59938;SDS011;45801;51.810;19.444;2024-03-02T11:07:57;33.40;;;21.90;;
59938;SDS011;45801;51.810;19.444;2024-03-02T11:10:31;30.70;;;22.40;;
59938;SDS011;45801;51.810;19.444;2024-03-02T11:13:03;31.30;;;22.60;;
59938;SDS011;45801;51.810;19.444;2024-03-02T11:15:35;32.60;;;22.40;;
59938;SDS011;45801;51.810;19.444;2024-03-02T11:18:04;31.80;;;21.50;;
59938;SDS011;45801;51.810;19.444;2024-03-02T11:20:38;35.30;;;22.40;;
59938;SDS011;45801;51.810;19.444;2024-03-02T11:23:06;35.60;;;23.20;;
59938;SDS011;45801;51.810;19.444;2024-03-02T11:25:34;36.10;;;24.60;;
59938;SDS011;45801;51.810;19.444;2024-03-02T11:28:03;33.00;;;22.70;;
59938;SDS011;45801;51.810;19.444;2024-03-02T11:33:04;32.60;;;21.80;;
59938;SDS011;45801;51.810;19.444;2024-03-02T11:35:36;29.70;;;20.20;;
59938;SDS011;45801;51.810;19.444;2024-03-02T11:38:15;34.90;;;24.30;;
59938;SDS011;45801;51.810;19.444;2024-03-02T11:40:42;37.30;;;24.20;;
59938;SDS011;45801;51.810;19.444;2024-03-02T11:43:08;39.80;;;25.20;;
59938;SDS011;45801;51.810;19.444;2024-03-02T11:45:36;33.00;;;22.90;;
59938;SDS011;45801;51.810;19.444;2024-03-02T11:48:06;32.50;;;21.80;;
59938;SDS011;45801;51.810;19.444;2024-03-02T11:50:35;34.60;;;23.30;;
59938;SDS011;45801;51.810;19.444;2024-03-02T11:53:07;24.70;;;14.60;;
59938;SDS011;45801;51.810;19.444;2024-03-02T11:55:37;32.70;;;21.60;;
59938;SDS011;45801;51.810;19.444;2024-03-02T11:58:06;32.30;;;22.90;;
59938;SDS011;45801;51.810;19.444;2024-03-02T12:00:33;32.40;;;22.20;;
59938;SDS011;45801;51.810;19.444;2024-03-02T12:03:10;32.00;;;22.70;;
59938;SDS011;45801;51.810;19.444;2024-03-02T12:05:40;32.90;;;21.40;;
59938;SDS011;45801;51.810;19.444;2024-03-02T12:08:07;32.80;;;22.50;;
59938;SDS011;45801;51.810;19.444;2024-03-02T12:10:35;35.70;;;22.20;;
59938;SDS011;45801;51.810;19.444;2024-03-02T12:13:04;32.80;;;22.70;;
59938;SDS011;45801;51.810;19.444;2024-03-02T12:15:33;35.20;;;21.70;;
59938;SDS011;45801;51.810;19.444;2024-03-02T12:18:01;33.00;;;20.80;;
59938;SDS011;45801;51.810;19.444;2024-03-02T12:20:28;33.00;;;21.00;;
59938;SDS011;45801;51.810;19.444;2024-03-02T12:22:59;31.60;;;20.40;;
59938;SDS011;45801;51.810;19.444;2024-03-02T12:25:31;33.90;;;21.50;;
59938;SDS011;45801;51.810;19.444;2024-03-02T12:28:02;31.60;;;20.10;;
59938;SDS011;45801;51.810;19.444;2024-03-02T12:30:29;30.20;;;20.80;;
59938;SDS011;45801;51.810;19.444;2024-03-02T12:32:57;32.10;;;21.90;;
59938;SDS011;45801;51.810;19.444;2024-03-02T12:35:24;31.40;;;20.30;;
59938;SDS011;45801;51.810;19.444;2024-03-02T12:37:54;31.40;;;21.40;;
59938;SDS011;45801;51.810;19.444;2024-03-02T12:40:21;33.50;;;20.70;;
59938;SDS011;45801;51.810;19.444;2024-03-02T12:42:49;31.40;;;21.50;;
59938;SDS011;45801;51.810;19.444;2024-03-02T12:45:16;34.10;;;21.90;;
59938;SDS011;45801;51.810;19.444;2024-03-02T12:47:51;33.70;;;21.90;;
59938;SDS011;45801;51.810;19.444;2024-03-02T12:50:18;32.60;;;21.80;;
59938;SDS011;45801;51.810;19.444;2024-03-02T12:52:52;31.60;;;20.90;;
59938;SDS011;45801;51.810;19.444;2024-03-02T12:55:19;34.40;;;22.30;;
59938;SDS011;45801;51.810;19.444;2024-03-02T12:57:49;34.10;;;22.90;;
59938;SDS011;45801;51.810;19.444;2024-03-02T13:00:19;35.60;;;22.40;;
59938;SDS011;45801;51.810;19.444;2024-03-02T13:02:50;36.20;;;23.30;;
59938;SDS011;45801;51.810;19.444;2024-03-02T13:05:17;38.00;;;23.80;;
59938;SDS011;45801;51.810;19.444;2024-03-02T13:07:43;34.80;;;23.00;;
59938;SDS011;45801;51.810;19.444;2024-03-02T13:10:12;35.40;;;22.30;;
59938;SDS011;45801;51.810;19.444;2024-03-02T13:12:39;33.80;;;22.00;;
59938;SDS011;45801;51.810;19.444;2024-03-02T13:15:06;32.40;;;22.20;;
59938;SDS011;45801;51.810;19.444;2024-03-02T13:17:35;34.50;;;21.80;;
59938;SDS011;45801;51.810;19.444;2024-03-02T13:20:02;31.70;;;22.00;;
59938;SDS011;45801;51.810;19.444;2024-03-02T13:22:30;33.90;;;22.10;;
59938;SDS011;45801;51.810;19.444;2024-03-02T13:24:59;34.50;;;23.20;;
59938;SDS011;45801;51.810;19.444;2024-03-02T13:27:27;36.70;;;23.00;;
59938;SDS011;45801;51.810;19.444;2024-03-02T13:29:54;37.20;;;22.60;;
59938;SDS011;45801;51.810;19.444;2024-03-02T13:32:23;37.60;;;23.00;;
59938;SDS011;45801;51.810;19.444;2024-03-02T13:34:51;32.60;;;21.60;;
59938;SDS011;45801;51.810;19.444;2024-03-02T13:37:18;34.80;;;23.20;;
59938;SDS011;45801;51.810;19.444;2024-03-02T13:39:44;32.90;;;23.70;;
59938;SDS011;45801;51.810;19.444;2024-03-02T13:42:11;30.80;;;21.90;;
59938;SDS011;45801;51.810;19.444;2024-03-02T13:44:43;34.30;;;22.10;;
59938;SDS011;45801;51.810;19.444;2024-03-02T13:47:13;37.40;;;23.70;;
59938;SDS011;45801;51.810;19.444;2024-03-02T13:49:41;33.50;;;22.70;;
59938;SDS011;45801;51.810;19.444;2024-03-02T13:52:11;34.00;;;22.90;;
59938;SDS011;45801;51.810;19.444;2024-03-02T13:54:44;32.10;;;21.90;;
59938;SDS011;45801;51.810;19.444;2024-03-02T13:57:12;37.20;;;22.40;;
59938;SDS011;45801;51.810;19.444;2024-03-02T13:59:40;33.30;;;22.60;;
59938;SDS011;45801;51.810;19.444;2024-03-02T14:02:08;32.70;;;22.90;;
59938;SDS011;45801;51.810;19.444;2024-03-02T14:04:35;32.90;;;22.80;;
59938;SDS011;45801;51.810;19.444;2024-03-02T14:07:03;33.30;;;21.60;;
59938;SDS011;45801;51.810;19.444;2024-03-02T14:09:33;31.70;;;22.30;;
59938;SDS011;45801;51.810;19.444;2024-03-02T14:12:00;32.70;;;22.10;;
59938;SDS011;45801;51.810;19.444;2024-03-02T14:14:27;33.10;;;21.90;;
59938;SDS011;45801;51.810;19.444;2024-03-02T14:16:57;32.70;;;21.90;;
59938;SDS011;45801;51.810;19.444;2024-03-02T14:19:30;32.00;;;21.80;;
59938;SDS011;45801;51.810;19.444;2024-03-02T14:21:57;33.70;;;22.70;;
59938;SDS011;45801;51.810;19.444;2024-03-02T14:24:25;34.40;;;22.80;;
59938;SDS011;45801;51.810;19.444;2024-03-02T14:26:52;31.90;;;22.70;;